sensor_id;sensor_type;location;lat;lon;timestamp;pressure;altitude;pressure_sealevel;temperature;humidity
54262;BME280;40174;52.364;6.452;2023-04-25T00:00:33;100713.94;;;6.09;nan
54262;BME280;40174;52.364;6.452;2023-04-25T00:03:00;100710.69;;;6.06;nan
54262;BME280;40174;52.364;6.452;2023-04-25T00:05:27;100719.09;;;6.11;nan
54262;BME280;40174;52.364;6.452;2023-04-25T00:07:54;100729.34;;;6.01;nan
54262;BME280;40174;52.364;6.452;2023-04-25T00:10:21;100731.31;;;5.97;nan
54262;BME280;40174;52.364;6.452;2023-04-25T00:12:49;100726.25;;;5.94;nan
54262;BME280;40174;52.364;6.452;2023-04-25T00:15:16;100730.81;;;5.91;nan
54262;BME280;40174;52.364;6.452;2023-04-25T00:17:42;100723.31;;;5.84;nan
54262;BME280;40174;52.364;6.452;2023-04-25T00:20:11;100729.69;;;5.80;nan
54262;BME280;40174;52.364;6.452;2023-04-25T00:22:38;100730.09;;;5.74;nan
54262;BME280;40174;52.364;6.452;2023-04-25T00:25:05;100728.59;;;5.70;nan
54262;BME280;40174;52.364;6.452;2023-04-25T00:27:32;100728.03;;;5.65;nan
54262;BME280;40174;52.364;6.452;2023-04-25T00:30:00;100725.78;;;5.59;nan
54262;BME280;40174;52.364;6.452;2023-04-25T00:32:28;100723.31;;;5.56;nan
54262;BME280;40174;52.364;6.452;2023-04-25T00:34:54;100725.66;;;5.46;nan
54262;BME280;40174;52.364;6.452;2023-04-25T00:37:23;100721.25;;;5.32;nan
54262;BME280;40174;52.364;6.452;2023-04-25T00:39:50;100733.53;;;5.32;nan
54262;BME280;40174;52.364;6.452;2023-04-25T00:42:19;100737.63;;;5.21;nan
54262;BME280;40174;52.364;6.452;2023-04-25T00:44:46;100738.72;;;5.17;nan
54262;BME280;40174;52.364;6.452;2023-04-25T00:47:15;100742.00;;;5.07;nan
54262;BME280;40174;52.364;6.452;2023-04-25T00:49:42;100746.31;;;5.08;nan
54262;BME280;40174;52.364;6.452;2023-04-25T00:52:08;100746.31;;;5.08;nan
54262;BME280;40174;52.364;6.452;2023-04-25T00:54:35;100743.88;;;5.05;nan
54262;BME280;40174;52.364;6.452;2023-04-25T00:57:02;100743.75;;;5.06;nan
54262;BME280;40174;52.364;6.452;2023-04-25T00:59:30;100743.13;;;5.03;nan
54262;BME280;40174;52.364;6.452;2023-04-25T01:01:56;100737.13;;;5.00;nan
54262;BME280;40174;52.364;6.452;2023-04-25T01:04:26;100739.56;;;5.04;nan
54262;BME280;40174;52.364;6.452;2023-04-25T01:06:53;100735.53;;;4.98;nan
54262;BME280;40174;52.364;6.452;2023-04-25T01:09:22;100736.63;;;4.94;nan
54262;BME280;40174;52.364;6.452;2023-04-25T01:11:49;100734.56;;;4.85;nan
54262;BME280;40174;52.364;6.452;2023-04-25T01:14:15;100744.66;;;4.91;nan
54262;BME280;40174;52.364;6.452;2023-04-25T01:16:42;100738.00;;;4.85;nan
54262;BME280;40174;52.364;6.452;2023-04-25T01:19:10;100738.91;;;4.84;nan
54262;BME280;40174;52.364;6.452;2023-04-25T01:21:39;100745.78;;;4.87;nan
54262;BME280;40174;52.364;6.452;2023-04-25T01:24:06;100746.69;;;4.86;nan
54262;BME280;40174;52.364;6.452;2023-04-25T01:26:33;100743.72;;;4.92;nan
54262;BME280;40174;52.364;6.452;2023-04-25T01:29:01;100743.66;;;4.93;nan
54262;BME280;40174;52.364;6.452;2023-04-25T01:31:28;100744.50;;;4.94;nan
54262;BME280;40174;52.364;6.452;2023-04-25T01:33:55;100744.75;;;4.89;nan
54262;BME280;40174;52.364;6.452;2023-04-25T01:36:21;100738.69;;;4.89;nan
54262;BME280;40174;52.364;6.452;2023-04-25T01:38:50;100751.59;;;4.92;nan
54262;BME280;40174;52.364;6.452;2023-04-25T01:41:17;100735.97;;;4.90;nan
54262;BME280;40174;52.364;6.452;2023-04-25T01:43:45;100740.44;;;4.88;nan
54262;BME280;40174;52.364;6.452;2023-04-25T01:46:12;100755.50;;;4.85;nan
54262;BME280;40174;52.364;6.452;2023-04-25T01:48:39;100750.41;;;4.82;nan
54262;BME280;40174;52.364;6.452;2023-04-25T01:51:06;100746.28;;;4.77;nan
54262;BME280;40174;52.364;6.452;2023-04-25T01:53:33;101615.69;;;4.73;nan
54262;BME280;40174;52.364;6.452;2023-04-25T01:56:03;100757.41;;;4.67;nan
54262;BME280;40174;52.364;6.452;2023-04-25T01:58:33;100760.34;;;4.61;nan
54262;BME280;40174;52.364;6.452;2023-04-25T02:01:18;100768.38;;;4.57;nan
54262;BME280;40174;52.364;6.452;2023-04-25T02:03:55;100767.22;;;4.47;nan
54262;BME280;40174;52.364;6.452;2023-04-25T02:06:31;100775.31;;;4.43;nan
54262;BME280;40174;52.364;6.452;2023-04-25T02:08:58;100778.34;;;4.51;nan
54262;BME280;40174;52.364;6.452;2023-04-25T02:11:26;100774.03;;;4.50;nan
54262;BME280;40174;52.364;6.452;2023-04-25T02:14:16;100777.50;;;4.50;nan
54262;BME280;40174;52.364;6.452;2023-04-25T02:16:52;100777.59;;;4.49;nan
54262;BME280;40174;52.364;6.452;2023-04-25T02:19:19;100789.66;;;4.51;nan
54262;BME280;40174;52.364;6.452;2023-04-25T02:21:46;100782.66;;;4.52;nan
54262;BME280;40174;52.364;6.452;2023-04-25T02:24:13;100792.09;;;4.54;nan
54262;BME280;40174;52.364;6.452;2023-04-25T02:26:41;100795.47;;;4.56;nan
54262;BME280;40174;52.364;6.452;2023-04-25T02:29:08;100785.00;;;4.56;nan
54262;BME280;40174;52.364;6.452;2023-04-25T02:31:35;100786.78;;;4.56;nan
54262;BME280;40174;52.364;6.452;2023-04-25T02:34:02;100802.56;;;4.54;nan
54262;BME280;40174;52.364;6.452;2023-04-25T02:36:28;100795.75;;;4.52;nan
54262;BME280;40174;52.364;6.452;2023-04-25T02:38:57;100800.13;;;4.51;nan
54262;BME280;40174;52.364;6.452;2023-04-25T02:41:24;100796.94;;;4.46;nan
54262;BME280;40174;52.364;6.452;2023-04-25T02:43:52;100794.41;;;4.45;nan
54262;BME280;40174;52.364;6.452;2023-04-25T02:46:18;100805.63;;;4.47;nan
54262;BME280;40174;52.364;6.452;2023-04-25T02:48:45;100800.47;;;4.45;nan
54262;BME280;40174;52.364;6.452;2023-04-25T02:51:12;100802.31;;;4.43;nan
54262;BME280;40174;52.364;6.452;2023-04-25T02:53:39;100797.16;;;4.42;nan
54262;BME280;40174;52.364;6.452;2023-04-25T02:56:06;100803.16;;;4.44;nan
54262;BME280;40174;52.364;6.452;2023-04-25T02:58:32;100805.97;;;4.41;nan
54262;BME280;40174;52.364;6.452;2023-04-25T03:01:01;100812.03;;;4.41;nan
54262;BME280;40174;52.364;6.452;2023-04-25T03:03:27;100809.50;;;4.40;nan
54262;BME280;40174;52.364;6.452;2023-04-25T03:05:54;100805.25;;;4.37;nan
54262;BME280;40174;52.364;6.452;2023-04-25T03:08:25;100805.19;;;4.38;nan
54262;BME280;40174;52.364;6.452;2023-04-25T03:10:58;100807.81;;;4.38;nan
54262;BME280;40174;52.364;6.452;2023-04-25T03:13:24;100808.00;;;4.35;nan
54262;BME280;40174;52.364;6.452;2023-04-25T03:15:53;100802.84;;;4.34;nan
54262;BME280;40174;52.364;6.452;2023-04-25T03:18:21;100811.44;;;4.36;nan
54262;BME280;40174;52.364;6.452;2023-04-25T03:20:47;100826.13;;;4.38;nan
54262;BME280;40174;52.364;6.452;2023-04-25T03:23:14;100821.91;;;4.36;nan
54262;BME280;40174;52.364;6.452;2023-04-25T03:25:41;100827.22;;;4.34;nan
54262;BME280;40174;52.364;6.452;2023-04-25T03:28:08;100824.53;;;4.36;nan
54262;BME280;40174;52.364;6.452;2023-04-25T03:30:35;100828.75;;;4.38;nan
54262;BME280;40174;52.364;6.452;2023-04-25T03:33:02;100827.66;;;4.43;nan
54262;BME280;40174;52.364;6.452;2023-04-25T03:35:30;100828.41;;;4.45;nan
54262;BME280;40174;52.364;6.452;2023-04-25T03:37:56;100830.03;;;4.47;nan
54262;BME280;40174;52.364;6.452;2023-04-25T03:40:28;100832.81;;;4.44;nan
54262;BME280;40174;52.364;6.452;2023-04-25T03:43:13;100833.81;;;4.42;nan
54262;BME280;40174;52.364;6.452;2023-04-25T03:45:46;100827.84;;;4.40;nan
54262;BME280;40174;52.364;6.452;2023-04-25T03:48:13;100821.91;;;4.36;nan
54262;BME280;40174;52.364;6.452;2023-04-25T03:50:41;100826.97;;;4.39;nan
54262;BME280;40174;52.364;6.452;2023-04-25T03:53:08;100836.59;;;4.38;nan
54262;BME280;40174;52.364;6.452;2023-04-25T03:55:54;100835.69;;;4.40;nan
54262;BME280;40174;52.364;6.452;2023-04-25T03:58:21;100834.16;;;4.35;nan
54262;BME280;40174;52.364;6.452;2023-04-25T04:00:48;100839.97;;;4.41;nan
54262;BME280;40174;52.364;6.452;2023-04-25T04:03:15;100840.75;;;4.43;nan
54262;BME280;40174;52.364;6.452;2023-04-25T04:05:43;100847.13;;;4.37;nan
54262;BME280;40174;52.364;6.452;2023-04-25T04:08:10;100837.44;;;4.39;nan
54262;BME280;40174;52.364;6.452;2023-04-25T04:10:38;100844.63;;;4.35;nan
54262;BME280;40174;52.364;6.452;2023-04-25T04:13:05;100846.31;;;4.36;nan
54262;BME280;40174;52.364;6.452;2023-04-25T04:15:32;100852.56;;;4.34;nan
54262;BME280;40174;52.364;6.452;2023-04-25T04:17:59;100855.09;;;4.35;nan
54262;BME280;40174;52.364;6.452;2023-04-25T04:20:28;100845.47;;;4.36;nan
54262;BME280;40174;52.364;6.452;2023-04-25T04:22:58;100843.78;;;4.35;nan
54262;BME280;40174;52.364;6.452;2023-04-25T04:25:26;100851.63;;;4.35;nan
54262;BME280;40174;52.364;6.452;2023-04-25T04:28:04;100861.16;;;4.36;nan
54262;BME280;40174;52.364;6.452;2023-04-25T04:30:39;100863.59;;;4.39;nan
54262;BME280;40174;52.364;6.452;2023-04-25T04:33:07;100865.56;;;4.35;nan
54262;BME280;40174;52.364;6.452;2023-04-25T04:35:34;100867.16;;;4.38;nan
54262;BME280;40174;52.364;6.452;2023-04-25T04:38:03;100863.72;;;4.37;nan
54262;BME280;40174;52.364;6.452;2023-04-25T04:40:34;100871.63;;;4.36;nan
54262;BME280;40174;52.364;6.452;2023-04-25T04:43:10;100873.25;;;4.38;nan
54262;BME280;40174;52.364;6.452;2023-04-25T04:45:49;100879.06;;;4.44;nan
54262;BME280;40174;52.364;6.452;2023-04-25T04:48:32;100889.63;;;4.42;nan
54262;BME280;40174;52.364;6.452;2023-04-25T04:51:17;100887.44;;;4.50;nan
54262;BME280;40174;52.364;6.452;2023-04-25T04:54:00;100888.44;;;4.48;nan
54262;BME280;40174;52.364;6.452;2023-04-25T04:56:56;100899.00;;;4.46;nan
54262;BME280;40174;52.364;6.452;2023-04-25T04:59:38;100894.63;;;4.47;nan
54262;BME280;40174;52.364;6.452;2023-04-25T05:02:24;100896.41;;;4.46;nan
54262;BME280;40174;52.364;6.452;2023-04-25T05:05:09;100891.81;;;4.50;nan
54262;BME280;40174;52.364;6.452;2023-04-25T05:07:58;100911.16;;;4.47;nan
54262;BME280;40174;52.364;6.452;2023-04-25T05:10:44;100919.47;;;4.55;nan
54262;BME280;40174;52.364;6.452;2023-04-25T05:13:34;100916.06;;;4.53;nan
54262;BME280;40174;52.364;6.452;2023-04-25T05:16:17;100923.00;;;4.54;nan
54262;BME280;40174;52.364;6.452;2023-04-25T05:18:51;100931.59;;;4.56;nan
54262;BME280;40174;52.364;6.452;2023-04-25T05:21:41;100934.16;;;4.58;nan
54262;BME280;40174;52.364;6.452;2023-04-25T05:24:37;100927.66;;;4.65;nan
54262;BME280;40174;52.364;6.452;2023-04-25T05:27:28;100935.34;;;4.68;nan
54262;BME280;40174;52.364;6.452;2023-04-25T05:30:07;100938.13;;;4.65;nan
54262;BME280;40174;52.364;6.452;2023-04-25T05:32:53;100935.34;;;4.68;nan
54262;BME280;40174;52.364;6.452;2023-04-25T05:35:19;100938.63;;;4.72;nan
54262;BME280;40174;52.364;6.452;2023-04-25T05:37:48;100950.06;;;4.71;nan
54262;BME280;40174;52.364;6.452;2023-04-25T05:40:15;100954.28;;;4.73;nan
54262;BME280;40174;52.364;6.452;2023-04-25T05:42:57;100951.41;;;4.78;nan
54262;BME280;40174;52.364;6.452;2023-04-25T05:45:35;100954.63;;;4.83;nan
54262;BME280;40174;52.364;6.452;2023-04-25T05:48:28;100958.69;;;4.89;nan
54262;BME280;40174;52.364;6.452;2023-04-25T05:51:24;100953.28;;;4.92;nan
54262;BME280;40174;52.364;6.452;2023-04-25T05:54:20;100964.91;;;5.02;nan
54262;BME280;40174;52.364;6.452;2023-04-25T05:56:47;100962.56;;;4.97;nan
54262;BME280;40174;52.364;6.452;2023-04-25T05:59:14;100964.09;;;5.02;nan
54262;BME280;40174;52.364;6.452;2023-04-25T06:01:41;100964.19;;;5.00;nan
54262;BME280;40174;52.364;6.452;2023-04-25T06:04:08;100970.84;;;5.06;nan
54262;BME280;40174;52.364;6.452;2023-04-25T06:06:35;100969.84;;;5.08;nan
54262;BME280;40174;52.364;6.452;2023-04-25T06:09:01;100973.97;;;5.12;nan
54262;BME280;40174;52.364;6.452;2023-04-25T06:11:30;100974.66;;;5.16;nan
54262;BME280;40174;52.364;6.452;2023-04-25T06:13:57;100978.63;;;5.23;nan
54262;BME280;40174;52.364;6.452;2023-04-25T06:16:25;100983.69;;;5.26;nan
54262;BME280;40174;52.364;6.452;2023-04-25T06:18:52;100983.53;;;5.29;nan
54262;BME280;40174;52.364;6.452;2023-04-25T06:21:19;100984.69;;;5.39;nan
54262;BME280;40174;52.364;6.452;2023-04-25T06:23:50;100993.31;;;5.41;nan
54262;BME280;40174;52.364;6.452;2023-04-25T06:26:20;100994.50;;;5.52;nan
54262;BME280;40174;52.364;6.452;2023-04-25T06:28:48;100994.78;;;5.47;nan
54262;BME280;40174;52.364;6.452;2023-04-25T06:31:14;101001.50;;;5.51;nan
54262;BME280;40174;52.364;6.452;2023-04-25T06:33:44;101004.13;;;5.51;nan
54262;BME280;40174;52.364;6.452;2023-04-25T06:36:10;101001.16;;;5.57;nan
54262;BME280;40174;52.364;6.452;2023-04-25T06:38:38;101004.09;;;5.67;nan
54262;BME280;40174;52.364;6.452;2023-04-25T06:41:04;101011.47;;;5.60;nan
54262;BME280;40174;52.364;6.452;2023-04-25T06:43:34;101010.75;;;5.58;nan
54262;BME280;40174;52.364;6.452;2023-04-25T06:46:22;101010.63;;;5.60;nan
54262;BME280;40174;52.364;6.452;2023-04-25T06:48:50;101019.50;;;5.73;nan
54262;BME280;40174;52.364;6.452;2023-04-25T06:51:18;101020.00;;;5.80;nan
54262;BME280;40174;52.364;6.452;2023-04-25T06:53:45;101020.75;;;5.98;nan
54262;BME280;40174;52.364;6.452;2023-04-25T06:56:22;101018.03;;;5.99;nan
54262;BME280;40174;52.364;6.452;2023-04-25T06:58:56;101019.09;;;6.11;nan
54262;BME280;40174;52.364;6.452;2023-04-25T07:01:28;101020.81;;;6.12;nan
54262;BME280;40174;52.364;6.452;2023-04-25T07:03:58;101019.50;;;6.19;nan
54262;BME280;40174;52.364;6.452;2023-04-25T07:06:25;101020.81;;;6.27;nan
54262;BME280;40174;52.364;6.452;2023-04-25T07:08:53;101021.78;;;6.40;nan
54262;BME280;40174;52.364;6.452;2023-04-25T07:11:20;101025.25;;;6.40;nan
54262;BME280;40174;52.364;6.452;2023-04-25T07:13:47;101034.16;;;6.38;nan
54262;BME280;40174;52.364;6.452;2023-04-25T07:16:13;101033.22;;;6.39;nan
54262;BME280;40174;52.364;6.452;2023-04-25T07:18:40;101032.69;;;6.48;nan
54262;BME280;40174;52.364;6.452;2023-04-25T07:21:09;101028.16;;;6.50;nan
54262;BME280;40174;52.364;6.452;2023-04-25T07:23:36;101032.22;;;6.56;nan
54262;BME280;40174;52.364;6.452;2023-04-25T07:26:09;101036.44;;;6.58;nan
54262;BME280;40174;52.364;6.452;2023-04-25T07:28:43;101032.97;;;6.72;nan
54262;BME280;40174;52.364;6.452;2023-04-25T07:31:09;101039.16;;;6.85;nan
54262;BME280;40174;52.364;6.452;2023-04-25T07:33:36;101047.34;;;6.95;nan
54262;BME280;40174;52.364;6.452;2023-04-25T07:36:03;101044.31;;;7.01;nan
54262;BME280;40174;52.364;6.452;2023-04-25T07:38:31;101054.38;;;7.09;nan
54262;BME280;40174;52.364;6.452;2023-04-25T07:40:58;101057.47;;;7.16;nan
54262;BME280;40174;52.364;6.452;2023-04-25T07:43:25;101053.50;;;7.23;nan
54262;BME280;40174;52.364;6.452;2023-04-25T07:45:56;101065.63;;;7.25;nan
54262;BME280;40174;52.364;6.452;2023-04-25T07:48:26;101066.81;;;7.34;nan
54262;BME280;40174;52.364;6.452;2023-04-25T07:50:52;101063.91;;;7.39;nan
54262;BME280;40174;52.364;6.452;2023-04-25T07:53:19;101064.41;;;7.31;nan
54262;BME280;40174;52.364;6.452;2023-04-25T07:55:53;101074.34;;;7.26;nan
54262;BME280;40174;52.364;6.452;2023-04-25T07:58:21;101069.66;;;7.31;nan
54262;BME280;40174;52.364;6.452;2023-04-25T08:00:50;101078.72;;;7.40;nan
54262;BME280;40174;52.364;6.452;2023-04-25T08:03:35;101076.22;;;7.38;nan
54262;BME280;40174;52.364;6.452;2023-04-25T08:06:05;101080.81;;;7.49;nan
54262;BME280;40174;52.364;6.452;2023-04-25T08:08:40;101084.72;;;7.56;nan
54262;BME280;40174;52.364;6.452;2023-04-25T08:11:10;101087.75;;;7.50;nan
54262;BME280;40174;52.364;6.452;2023-04-25T08:13:36;101098.72;;;7.57;nan
54262;BME280;40174;52.364;6.452;2023-04-25T08:16:03;101099.84;;;7.53;nan
54262;BME280;40174;52.364;6.452;2023-04-25T08:18:30;101104.72;;;7.59;nan
54262;BME280;40174;52.364;6.452;2023-04-25T08:20:57;101111.78;;;7.44;nan
54262;BME280;40174;52.364;6.452;2023-04-25T08:23:24;101103.41;;;7.66;nan
54262;BME280;40174;52.364;6.452;2023-04-25T08:26:12;101106.47;;;7.73;nan
54262;BME280;40174;52.364;6.452;2023-04-25T08:28:41;101113.16;;;7.78;nan
54262;BME280;40174;52.364;6.452;2023-04-25T08:31:08;101111.06;;;7.83;nan
54262;BME280;40174;52.364;6.452;2023-04-25T08:33:53;101116.13;;;7.86;nan
54262;BME280;40174;52.364;6.452;2023-04-25T08:36:36;101112.44;;;7.89;nan
54262;BME280;40174;52.364;6.452;2023-04-25T08:39:03;101110.22;;;7.83;nan
54262;BME280;40174;52.364;6.452;2023-04-25T08:41:36;101111.00;;;7.98;nan
54262;BME280;40174;52.364;6.452;2023-04-25T08:44:06;101123.81;;;8.17;nan
54262;BME280;40174;52.364;6.452;2023-04-25T08:46:37;101122.69;;;8.21;nan
54262;BME280;40174;52.364;6.452;2023-04-25T08:49:27;101134.94;;;8.35;nan
54262;BME280;40174;52.364;6.452;2023-04-25T08:51:58;101134.06;;;8.21;nan
54262;BME280;40174;52.364;6.452;2023-04-25T08:54:27;101145.88;;;8.28;nan
54262;BME280;40174;52.364;6.452;2023-04-25T08:56:57;101149.34;;;8.29;nan
54262;BME280;40174;52.364;6.452;2023-04-25T08:59:27;101149.75;;;8.50;nan
54262;BME280;40174;52.364;6.452;2023-04-25T09:01:54;101134.81;;;8.76;nan
54262;BME280;40174;52.364;6.452;2023-04-25T09:04:21;101135.56;;;8.78;nan
54262;BME280;40174;52.364;6.452;2023-04-25T09:06:48;101148.34;;;8.84;nan
54262;BME280;40174;52.364;6.452;2023-04-25T09:09:16;101150.53;;;9.03;nan
54262;BME280;40174;52.364;6.452;2023-04-25T09:11:43;101161.00;;;9.18;nan
54262;BME280;40174;52.364;6.452;2023-04-25T09:14:15;101163.22;;;9.11;nan
54262;BME280;40174;52.364;6.452;2023-04-25T09:17:04;101161.19;;;9.14;nan
54262;BME280;40174;52.364;6.452;2023-04-25T09:19:41;101167.09;;;9.05;nan
54262;BME280;40174;52.364;6.452;2023-04-25T09:22:17;101171.22;;;8.97;nan
54262;BME280;40174;52.364;6.452;2023-04-25T09:24:46;101170.38;;;8.96;nan
54262;BME280;40174;52.364;6.452;2023-04-25T09:27:18;101177.22;;;8.73;nan
54262;BME280;40174;52.364;6.452;2023-04-25T09:29:58;101180.81;;;8.45;nan
54262;BME280;40174;52.364;6.452;2023-04-25T09:32:30;101176.50;;;8.44;nan
54262;BME280;40174;52.364;6.452;2023-04-25T09:34:57;101171.41;;;8.68;nan
54262;BME280;40174;52.364;6.452;2023-04-25T09:37:27;101180.00;;;8.97;nan
54262;BME280;40174;52.364;6.452;2023-04-25T09:40:26;101177.25;;;9.24;nan
54262;BME280;40174;52.364;6.452;2023-04-25T09:43:02;101179.03;;;9.49;nan
54262;BME280;40174;52.364;6.452;2023-04-25T09:45:30;101180.69;;;9.50;nan
54262;BME280;40174;52.364;6.452;2023-04-25T09:48:02;101195.34;;;9.80;nan
54262;BME280;40174;52.364;6.452;2023-04-25T09:50:31;101197.78;;;10.07;nan
54262;BME280;40174;52.364;6.452;2023-04-25T09:53:05;101202.69;;;9.88;nan
54262;BME280;40174;52.364;6.452;2023-04-25T09:56:00;101210.53;;;9.64;nan
54262;BME280;40174;52.364;6.452;2023-04-25T09:58:31;101209.00;;;9.35;nan
54262;BME280;40174;52.364;6.452;2023-04-25T10:01:00;101217.88;;;9.22;nan
54262;BME280;40174;52.364;6.452;2023-04-25T10:03:39;101209.50;;;9.02;nan
54262;BME280;40174;52.364;6.452;2023-04-25T10:06:19;101208.78;;;9.00;nan
54262;BME280;40174;52.364;6.452;2023-04-25T10:08:50;101217.09;;;8.81;nan
54262;BME280;40174;52.364;6.452;2023-04-25T10:11:21;101216.88;;;8.84;nan
54262;BME280;40174;52.364;6.452;2023-04-25T10:13:50;101228.25;;;8.85;nan
54262;BME280;40174;52.364;6.452;2023-04-25T10:16:18;101227.41;;;8.84;nan
54262;BME280;40174;52.364;6.452;2023-04-25T10:18:45;101224.78;;;8.84;nan
54262;BME280;40174;52.364;6.452;2023-04-25T10:21:12;101220.06;;;9.28;nan
54262;BME280;40174;52.364;6.452;2023-04-25T10:23:40;101234.84;;;9.56;nan
54262;BME280;40174;52.364;6.452;2023-04-25T10:26:07;101257.00;;;9.66;nan
54262;BME280;40174;52.364;6.452;2023-04-25T10:28:55;101267.53;;;9.02;nan
54262;BME280;40174;52.364;6.452;2023-04-25T10:31:24;101279.78;;;8.49;nan
54262;BME280;40174;52.364;6.452;2023-04-25T10:33:51;101266.19;;;8.13;nan
54262;BME280;40174;52.364;6.452;2023-04-25T10:36:18;101264.63;;;7.97;nan
54262;BME280;40174;52.364;6.452;2023-04-25T10:38:47;101259.81;;;8.03;nan
54262;BME280;40174;52.364;6.452;2023-04-25T10:41:18;101254.38;;;7.92;nan
54262;BME280;40174;52.364;6.452;2023-04-25T10:43:46;101252.75;;;8.04;nan
54262;BME280;40174;52.364;6.452;2023-04-25T10:46:14;101253.31;;;8.23;nan
54262;BME280;40174;52.364;6.452;2023-04-25T10:48:46;101244.19;;;8.56;nan
54262;BME280;40174;52.364;6.452;2023-04-25T10:51:19;101233.97;;;8.91;nan
54262;BME280;40174;52.364;6.452;2023-04-25T10:53:46;101239.69;;;9.36;nan
54262;BME280;40174;52.364;6.452;2023-04-25T10:56:16;101233.03;;;9.56;nan
54262;BME280;40174;52.364;6.452;2023-04-25T10:58:44;101243.22;;;9.99;nan
54262;BME280;40174;52.364;6.452;2023-04-25T11:01:12;101235.56;;;10.20;nan
54262;BME280;40174;52.364;6.452;2023-04-25T11:03:40;101240.47;;;10.38;nan
54262;BME280;40174;52.364;6.452;2023-04-25T11:06:18;101238.91;;;10.59;nan
54262;BME280;40174;52.364;6.452;2023-04-25T11:08:49;101227.91;;;10.66;nan
54262;BME280;40174;52.364;6.452;2023-04-25T11:11:16;101244.06;;;10.85;nan
54262;BME280;40174;52.364;6.452;2023-04-25T11:13:44;101230.41;;;10.67;nan
54262;BME280;40174;52.364;6.452;2023-04-25T11:16:10;101236.38;;;10.82;nan
54262;BME280;40174;52.364;6.452;2023-04-25T11:18:37;101232.69;;;10.96;nan
54262;BME280;40174;52.364;6.452;2023-04-25T11:21:04;101240.09;;;11.26;nan
54262;BME280;40174;52.364;6.452;2023-04-25T11:23:32;101249.97;;;11.35;nan
54262;BME280;40174;52.364;6.452;2023-04-25T11:25:58;101250.03;;;11.11;nan
54262;BME280;40174;52.364;6.452;2023-04-25T11:28:26;101265.03;;;10.99;nan
54262;BME280;40174;52.364;6.452;2023-04-25T11:30:53;101253.31;;;10.55;nan
54262;BME280;40174;52.364;6.452;2023-04-25T11:33:23;101255.06;;;11.03;nan
54262;BME280;40174;52.364;6.452;2023-04-25T11:35:50;101254.81;;;11.41;nan
54262;BME280;40174;52.364;6.452;2023-04-25T11:38:17;101255.59;;;11.89;nan
54262;BME280;40174;52.364;6.452;2023-04-25T11:40:49;101278.41;;;12.12;nan
54262;BME280;40174;52.364;6.452;2023-04-25T11:43:17;101269.03;;;11.97;nan
54262;BME280;40174;52.364;6.452;2023-04-25T11:45:46;101269.75;;;12.10;nan
54262;BME280;40174;52.364;6.452;2023-04-25T11:48:12;101275.53;;;11.93;nan
54262;BME280;40174;52.364;6.452;2023-04-25T11:50:39;101293.00;;;11.84;nan
54262;BME280;40174;52.364;6.452;2023-04-25T11:53:06;101290.56;;;11.12;nan
54262;BME280;40174;52.364;6.452;2023-04-25T11:55:33;101287.47;;;10.58;nan
54262;BME280;40174;52.364;6.452;2023-04-25T11:58:03;101284.38;;;10.40;nan
54262;BME280;40174;52.364;6.452;2023-04-25T12:00:31;101274.13;;;10.23;nan
54262;BME280;40174;52.364;6.452;2023-04-25T12:02:58;101279.00;;;10.29;nan
54262;BME280;40174;52.364;6.452;2023-04-25T12:05:26;101282.59;;;10.15;nan
54262;BME280;40174;52.364;6.452;2023-04-25T12:07:53;101276.78;;;10.10;nan
54262;BME280;40174;52.364;6.452;2023-04-25T12:10:20;101280.41;;;9.96;nan
54262;BME280;40174;52.364;6.452;2023-04-25T12:12:47;101277.91;;;9.82;nan
54262;BME280;40174;52.364;6.452;2023-04-25T12:15:17;101285.50;;;9.87;nan
54262;BME280;40174;52.364;6.452;2023-04-25T12:17:45;101295.09;;;9.88;nan
54262;BME280;40174;52.364;6.452;2023-04-25T12:20:14;101293.53;;;9.85;nan
54262;BME280;40174;52.364;6.452;2023-04-25T12:22:42;101297.84;;;9.99;nan
54262;BME280;40174;52.364;6.452;2023-04-25T12:25:11;101309.53;;;10.20;nan
54262;BME280;40174;52.364;6.452;2023-04-25T12:27:38;101302.28;;;10.11;nan
54262;BME280;40174;52.364;6.452;2023-04-25T12:30:08;101321.59;;;9.99;nan
54262;BME280;40174;52.364;6.452;2023-04-25T12:32:37;101320.31;;;10.17;nan
54262;BME280;40174;52.364;6.452;2023-04-25T12:37:31;101333.28;;;10.46;nan
54262;BME280;40174;52.364;6.452;2023-04-25T12:39:58;101320.75;;;10.61;nan
54262;BME280;40174;52.364;6.452;2023-04-25T12:42:24;101320.75;;;10.61;nan
54262;BME280;40174;52.364;6.452;2023-04-25T12:44:51;101329.25;;;10.77;nan
54262;BME280;40174;52.364;6.452;2023-04-25T12:47:17;101324.75;;;11.15;nan
54262;BME280;40174;52.364;6.452;2023-04-25T12:49:45;101315.81;;;11.62;nan
54262;BME280;40174;52.364;6.452;2023-04-25T12:52:12;101327.22;;;11.98;nan
54262;BME280;40174;52.364;6.452;2023-04-25T12:54:38;101328.19;;;12.20;nan
54262;BME280;40174;52.364;6.452;2023-04-25T12:57:05;101334.06;;;12.12;nan
54262;BME280;40174;52.364;6.452;2023-04-25T12:59:32;101314.69;;;12.00;nan
54262;BME280;40174;52.364;6.452;2023-04-25T13:01:58;101323.34;;;11.91;nan
54262;BME280;40174;52.364;6.452;2023-04-25T13:04:25;101332.19;;;11.68;nan
54262;BME280;40174;52.364;6.452;2023-04-25T13:06:53;101324.50;;;11.76;nan
54262;BME280;40174;52.364;6.452;2023-04-25T13:09:19;101338.28;;;12.03;nan
54262;BME280;40174;52.364;6.452;2023-04-25T13:11:46;101328.88;;;12.44;nan
54262;BME280;40174;52.364;6.452;2023-04-25T13:14:12;101332.38;;;12.22;nan
54262;BME280;40174;52.364;6.452;2023-04-25T13:16:39;101325.38;;;12.33;nan
54262;BME280;40174;52.364;6.452;2023-04-25T13:19:06;101328.16;;;12.42;nan
54262;BME280;40174;52.364;6.452;2023-04-25T13:21:36;101326.72;;;12.38;nan
54262;BME280;40174;52.364;6.452;2023-04-25T13:24:04;101332.34;;;12.56;nan
54262;BME280;40174;52.364;6.452;2023-04-25T13:26:31;101330.50;;;12.68;nan
54262;BME280;40174;52.364;6.452;2023-04-25T13:28:58;101337.38;;;12.59;nan
54262;BME280;40174;52.364;6.452;2023-04-25T13:31:25;101350.16;;;12.65;nan
54262;BME280;40174;52.364;6.452;2023-04-25T13:33:52;101349.44;;;12.63;nan
54262;BME280;40174;52.364;6.452;2023-04-25T13:36:18;101348.34;;;12.66;nan
54262;BME280;40174;52.364;6.452;2023-04-25T13:38:45;101346.41;;;12.68;nan